ローマ/フィウミチーノ の空港の天気 - METARとTAF

ローマ・レオナルド・ダ・ビンチ国際空港 ( LIRF / FCO ) - イタリア ローマ
飛行場実況気象(Metar)
観測時間01/20 04:20 CET (01/20 03:20 UTC)
風向・風速東北東 3m/s
視程10km以上
天気現象
少しの雲 雲底高度 820m
全天の4割程度の雲 雲底高度 1070m
全天の8割程度の雲 雲底高度 1580m
気温5℃
湿度93%
気圧1013hPa
METARLIRF 200320Z 06005KT 9999 FEW027 SCT035 BKN052 05/04 Q1013 TEMPO SHRA
過去の天気等 Google飛行場航空写真 Wunderground天気予報

過去48時間のMETAR

飛行場予報(TAF)
発表時間: 1/20 00:00 CET (1/19 23:00 UTC)
予報対象時間: 20日1時 CET ~ 21日7時 CET
風向・風速東南東 4m/s
視程10km以上
全天の4割程度の雲 雲底高度 910m
20日4時 CET ~ 20日10時 CET に一時的に
天気現象雷雨
20日13時 CET ~ 20日15時 CET に徐々に
風向・風速北北東 5m/s
TAF LIRF 192300Z 2000/2106 12008KT 9999 SCT030
TEMPO 2003/2009 TSRA
BECMG 2012/2014 02010KT